createdAt,value
2018-03-07T00:00:02.239Z,8.74
2018-03-07T00:01:02.219Z,8.71
2018-03-07T00:02:55.577Z,8.74
2018-03-07T00:03:55.535Z,8.71
2018-03-07T00:05:48.383Z,8.76
2018-03-07T00:06:48.360Z,8.58
2018-03-07T00:08:41.746Z,8.69
2018-03-07T00:09:41.719Z,8.53
2018-03-07T00:11:34.544Z,8.48
2018-03-07T00:12:34.519Z,8.44
2018-03-07T00:14:27.383Z,8.45
2018-03-07T00:15:27.353Z,8.52
2018-03-07T00:17:20.687Z,8.42
2018-03-07T00:18:20.663Z,8.49
2018-03-07T00:20:14.019Z,8.44
2018-03-07T00:21:13.986Z,8.45
2018-03-07T00:23:06.826Z,8.33
2018-03-07T00:24:06.803Z,8.45
2018-03-07T00:26:00.164Z,8.36
2018-03-07T00:27:00.129Z,8.45
2018-03-07T00:28:53.466Z,8.46
2018-03-07T00:29:53.441Z,8.34
2018-03-07T00:31:46.792Z,8.27
2018-03-07T00:32:46.766Z,8.36
2018-03-07T00:34:40.111Z,8.31
2018-03-07T00:35:40.078Z,8.41
2018-03-07T00:37:33.436Z,8.28
2018-03-07T00:38:33.398Z,8.28
2018-03-07T00:40:26.739Z,8.42
2018-03-07T00:41:26.716Z,8.41
2018-03-07T00:43:20.078Z,8.36
2018-03-07T00:44:20.036Z,8.16
2018-03-07T00:46:12.879Z,8.20
2018-03-07T00:47:12.858Z,8.08
2018-03-07T00:49:06.211Z,8.16
2018-03-07T00:50:06.176Z,8.20
2018-03-07T00:51:59.528Z,7.95
2018-03-07T00:52:59.504Z,8.06
2018-03-07T00:54:52.869Z,7.97
2018-03-07T00:55:52.827Z,8.01
2018-03-07T00:57:45.682Z,7.90
2018-03-07T00:58:45.652Z,7.94
2018-03-07T01:00:38.514Z,7.94
2018-03-07T01:01:38.475Z,8.06
2018-03-07T01:03:31.324Z,8.10
2018-03-07T01:04:31.298Z,8.06
2018-03-07T01:06:24.660Z,7.98
2018-03-07T01:07:24.653Z,8.10
2018-03-07T01:09:17.963Z,8.26
2018-03-07T01:10:17.938Z,8.06
2018-03-07T01:12:11.297Z,8.01
2018-03-07T01:13:11.257Z,8.13
2018-03-07T01:15:04.103Z,7.83
2018-03-07T01:16:04.080Z,7.83
2018-03-07T01:17:57.436Z,7.85
2018-03-07T01:18:57.401Z,7.93
2018-03-07T01:20:50.243Z,7.95
2018-03-07T01:21:50.223Z,7.91
2018-03-07T01:23:43.589Z,8.00
2018-03-07T01:24:43.541Z,7.94
2018-03-07T01:26:36.885Z,7.82
2018-03-07T01:27:36.859Z,7.73
2018-03-07T01:29:29.723Z,7.77
2018-03-07T01:30:29.684Z,7.87
2018-03-07T01:32:23.028Z,7.87
2018-03-07T01:33:22.999Z,7.85
2018-03-07T01:35:16.368Z,7.75
2018-03-07T01:36:16.316Z,7.70
2018-03-07T01:38:09.196Z,7.77
2018-03-07T01:39:09.168Z,7.75
2018-03-07T01:41:02.536Z,7.77
2018-03-07T01:42:02.485Z,7.87
2018-03-07T01:43:55.836Z,7.76
2018-03-07T01:44:55.811Z,7.72
2018-03-07T01:46:49.179Z,7.54
2018-03-07T01:47:49.128Z,7.69
2018-03-07T01:49:41.978Z,7.70
2018-03-07T01:50:41.965Z,7.73
2018-03-07T01:52:34.819Z,7.82
2018-03-07T01:53:34.799Z,7.88
2018-03-07T01:55:28.132Z,7.98
2018-03-07T01:56:28.108Z,7.94
2018-03-07T01:58:20.977Z,8.05
2018-03-07T01:59:20.937Z,7.83
2018-03-07T02:01:14.273Z,7.79
2018-03-07T02:02:14.252Z,7.82
2018-03-07T02:04:07.113Z,7.95
2018-03-07T02:05:07.076Z,7.83
2018-03-07T02:07:00.424Z,7.79
2018-03-07T02:08:00.391Z,7.91
2018-03-07T02:09:53.745Z,7.67
2018-03-07T02:10:53.707Z,7.60
2018-03-07T02:12:47.055Z,7.24
2018-03-07T02:13:47.027Z,7.28
2018-03-07T02:15:39.894Z,7.29
2018-03-07T02:16:39.853Z,7.32
2018-03-07T02:18:33.195Z,7.32
2018-03-07T02:19:33.178Z,7.25
2018-03-07T02:21:26.527Z,7.48
2018-03-07T02:22:26.492Z,7.48
2018-03-07T02:24:19.834Z,7.51
2018-03-07T02:25:19.805Z,7.61
2018-03-07T02:27:12.672Z,7.53
2018-03-07T02:28:12.634Z,7.58
2018-03-07T02:30:05.981Z,7.47
2018-03-07T02:31:05.958Z,7.53
2018-03-07T02:32:58.823Z,7.35
2018-03-07T02:33:58.786Z,7.40
2018-03-07T02:35:52.125Z,7.36
2018-03-07T02:36:52.104Z,7.28
2018-03-07T02:38:45.462Z,7.11
2018-03-07T02:39:45.424Z,7.25
2018-03-07T02:41:38.761Z,7.28
2018-03-07T02:42:38.741Z,7.33
2018-03-07T02:44:31.610Z,7.15
2018-03-07T02:45:31.566Z,7.33
2018-03-07T02:47:24.917Z,7.38
2018-03-07T02:48:24.893Z,7.31
2018-03-07T02:50:17.755Z,7.43
2018-03-07T02:51:17.714Z,7.56
2018-03-07T02:53:10.558Z,7.70
2018-03-07T02:54:10.541Z,7.24
2018-03-07T02:56:03.396Z,7.32
2018-03-07T02:57:03.358Z,7.43
2018-03-07T02:58:56.206Z,7.58
2018-03-07T02:59:56.179Z,7.53
2018-03-07T03:01:49.040Z,7.36
2018-03-07T03:02:49.007Z,7.23
2018-03-07T03:04:42.349Z,7.33
2018-03-07T03:05:42.327Z,7.25
2018-03-07T03:07:35.197Z,7.24
2018-03-07T03:08:35.152Z,7.24
2018-03-07T03:10:27.997Z,7.14
2018-03-07T03:11:28.017Z,7.14
2018-03-07T03:13:20.835Z,6.92
2018-03-07T03:14:20.797Z,6.93
2018-03-07T03:16:14.155Z,6.62
2018-03-07T03:17:14.127Z,6.67
2018-03-07T03:19:06.932Z,6.48
2018-03-07T03:20:06.891Z,6.64
2018-03-07T03:21:59.727Z,6.51
2018-03-07T03:22:59.698Z,6.48
2018-03-07T03:24:53.066Z,6.51
2018-03-07T03:25:53.028Z,6.48
2018-03-07T03:27:46.354Z,6.62
2018-03-07T03:28:46.329Z,6.57
2018-03-07T03:30:39.665Z,6.60
2018-03-07T03:31:39.626Z,6.74
2018-03-07T03:33:32.449Z,6.93
2018-03-07T03:34:32.429Z,7.02
2018-03-07T03:36:25.759Z,7.00
2018-03-07T03:37:25.721Z,6.95
2018-03-07T03:39:18.545Z,6.89
2018-03-07T03:40:18.525Z,6.93
2018-03-07T03:42:11.374Z,6.97
2018-03-07T03:43:11.324Z,7.03
2018-03-07T03:45:04.648Z,7.10
2018-03-07T03:46:04.621Z,7.14
2018-03-07T03:47:57.959Z,7.14
2018-03-07T03:48:57.918Z,7.11
2018-03-07T03:50:51.237Z,7.20
2018-03-07T03:51:51.214Z,7.33
2018-03-07T03:53:44.560Z,7.25
2018-03-07T03:54:44.509Z,7.33
2018-03-07T03:56:37.840Z,7.35
2018-03-07T03:57:37.816Z,7.42
2018-03-07T03:59:30.657Z,7.42
2018-03-07T04:00:30.613Z,7.50
2018-03-07T04:02:23.479Z,7.47
2018-03-07T04:03:23.426Z,7.51
2018-03-07T04:05:16.768Z,7.56
2018-03-07T04:06:16.739Z,7.47
2018-03-07T04:08:09.549Z,7.47
2018-03-07T04:09:09.522Z,7.47
2018-03-07T04:11:02.856Z,7.45
2018-03-07T04:12:02.822Z,7.29
2018-03-07T04:13:56.131Z,7.07
2018-03-07T04:14:56.117Z,7.11
2018-03-07T04:16:48.953Z,7.15
2018-03-07T04:17:48.914Z,7.00
2018-03-07T04:19:42.238Z,7.13
2018-03-07T04:20:42.214Z,7.15
2018-03-07T04:22:35.552Z,7.42
2018-03-07T04:23:35.516Z,7.25
2018-03-07T04:25:28.368Z,7.03
2018-03-07T04:26:28.313Z,6.82
2018-03-07T04:28:21.167Z,6.64
2018-03-07T04:29:21.130Z,6.64
2018-03-07T04:31:13.951Z,6.85
2018-03-07T04:32:13.930Z,6.95
2018-03-07T04:34:07.279Z,6.95
2018-03-07T04:35:07.242Z,6.87
2018-03-07T04:37:00.557Z,7.02
2018-03-07T04:38:00.534Z,6.95
2018-03-07T04:39:53.868Z,7.14
2018-03-07T04:40:53.830Z,7.07
2018-03-07T04:42:47.162Z,7.14
2018-03-07T04:43:47.134Z,7.06
2018-03-07T04:45:40.473Z,6.93
2018-03-07T04:46:40.438Z,6.92
2018-03-07T04:48:33.263Z,7.14
2018-03-07T04:49:33.237Z,7.15
2018-03-07T04:51:26.076Z,7.28
2018-03-07T04:52:26.040Z,7.15
2018-03-07T04:54:19.377Z,7.17
2018-03-07T04:55:19.334Z,7.29
2018-03-07T04:57:12.667Z,7.10
2018-03-07T04:58:12.635Z,7.31
2018-03-07T05:00:05.955Z,7.51
2018-03-07T05:01:05.931Z,7.51
2018-03-07T05:02:59.263Z,7.61
2018-03-07T05:03:59.229Z,7.61
2018-03-07T05:05:52.544Z,7.67
2018-03-07T05:06:52.525Z,7.66
2018-03-07T05:08:45.861Z,7.75
2018-03-07T05:09:45.822Z,7.53
2018-03-07T05:11:39.140Z,7.63
2018-03-07T05:12:39.120Z,7.69
2018-03-07T05:14:32.145Z,7.57
2018-03-07T05:15:31.938Z,7.60
2018-03-07T05:17:25.258Z,7.70
2018-03-07T05:18:25.234Z,7.70
2018-03-07T05:20:18.076Z,7.70
2018-03-07T05:21:18.036Z,7.72
2018-03-07T05:23:11.366Z,7.72
2018-03-07T05:24:11.344Z,7.70
2018-03-07T05:26:04.181Z,7.76
2018-03-07T05:27:04.145Z,7.79
2018-03-07T05:28:57.485Z,7.88
2018-03-07T05:29:57.450Z,7.75
2018-03-07T05:31:50.287Z,7.87
2018-03-07T05:32:50.248Z,8.01
2018-03-07T05:34:43.078Z,7.85
2018-03-07T05:35:43.060Z,7.85
2018-03-07T05:37:36.397Z,7.77
2018-03-07T05:38:36.381Z,7.51
2018-03-07T05:40:29.194Z,7.60
2018-03-07T05:41:29.162Z,7.61
2018-03-07T05:43:22.502Z,7.48
2018-03-07T05:44:22.458Z,7.47
2018-03-07T05:46:15.781Z,7.43
2018-03-07T05:47:15.759Z,7.60
2018-03-07T05:49:08.595Z,7.53
2018-03-07T05:50:08.565Z,7.60
2018-03-07T05:52:01.883Z,7.63
2018-03-07T05:53:01.849Z,7.63
2018-03-07T05:54:55.187Z,7.82
2018-03-07T05:55:55.151Z,7.82
2018-03-07T05:57:48.464Z,7.95
2018-03-07T05:58:48.446Z,7.97
2018-03-07T06:00:41.779Z,7.98
2018-03-07T06:01:41.738Z,8.01
2018-03-07T06:03:35.076Z,8.16
2018-03-07T06:04:35.048Z,8.09
2018-03-07T06:06:28.393Z,7.98
2018-03-07T06:07:28.350Z,8.08
2018-03-07T06:09:21.164Z,8.09
2018-03-07T06:10:21.139Z,8.08
2018-03-07T06:12:13.998Z,8.12
2018-03-07T06:13:13.940Z,8.09
2018-03-07T06:15:07.264Z,8.09
2018-03-07T06:16:07.237Z,8.19
2018-03-07T06:18:00.571Z,8.18
2018-03-07T06:19:00.533Z,8.10
2018-03-07T06:20:53.858Z,8.16
2018-03-07T06:21:53.829Z,8.09
2018-03-07T06:23:47.160Z,8.10
2018-03-07T06:24:47.128Z,8.10
2018-03-07T06:26:39.962Z,8.13
2018-03-07T06:27:39.930Z,8.12
2018-03-07T06:29:33.277Z,7.61
2018-03-07T06:30:33.232Z,7.54
2018-03-07T06:32:26.566Z,7.79
2018-03-07T06:33:26.563Z,7.69
2018-03-07T06:35:19.346Z,7.83
2018-03-07T06:36:19.292Z,7.85
2018-03-07T06:38:12.678Z,7.93
2018-03-07T06:39:12.617Z,7.73
2018-03-07T06:41:05.985Z,7.53
2018-03-07T06:42:05.950Z,7.43
2018-03-07T06:43:59.783Z,7.48
2018-03-07T06:44:59.251Z,7.57
2018-03-07T06:46:52.608Z,7.43
2018-03-07T06:47:52.566Z,7.48
2018-03-07T06:49:45.918Z,7.48
2018-03-07T06:50:45.896Z,7.51
2018-03-07T06:52:39.248Z,7.47
2018-03-07T06:53:39.208Z,7.38
2018-03-07T06:55:32.545Z,7.33
2018-03-07T06:56:32.520Z,7.28
2018-03-07T06:58:25.876Z,7.17
2018-03-07T06:59:25.839Z,7.15
2018-03-07T07:01:19.201Z,7.20
2018-03-07T07:02:19.176Z,7.23
2018-03-07T07:04:12.540Z,7.31
2018-03-07T07:05:12.497Z,7.24
2018-03-07T07:07:05.879Z,7.29
2018-03-07T07:08:05.813Z,7.35
2018-03-07T07:09:59.182Z,7.47
2018-03-07T07:10:59.136Z,7.33
2018-03-07T07:12:52.480Z,7.29
2018-03-07T07:13:52.461Z,7.48
2018-03-07T07:15:45.317Z,7.28
2018-03-07T07:16:45.321Z,7.35
2018-03-07T07:18:38.626Z,7.31
2018-03-07T07:19:38.643Z,7.35
2018-03-07T07:21:31.963Z,7.35
2018-03-07T07:22:31.959Z,7.42
2018-03-07T07:24:25.295Z,7.47
2018-03-07T07:25:25.254Z,7.51
2018-03-07T07:27:18.601Z,7.60
2018-03-07T07:28:18.671Z,7.57
2018-03-07T07:30:11.913Z,7.63
2018-03-07T07:31:11.956Z,7.76
2018-03-07T07:33:05.249Z,7.73
2018-03-07T07:34:05.212Z,7.66
2018-03-07T07:35:58.548Z,7.54
2018-03-07T07:36:58.518Z,7.53
2018-03-07T07:38:51.875Z,7.56
2018-03-07T07:39:51.837Z,7.61
2018-03-07T07:41:45.185Z,7.48
2018-03-07T07:42:45.163Z,7.60
2018-03-07T07:44:38.538Z,7.87
2018-03-07T07:45:38.494Z,7.67
2018-03-07T07:47:31.841Z,7.66
2018-03-07T07:48:31.818Z,7.73
2018-03-07T07:50:25.180Z,7.76
2018-03-07T07:51:25.137Z,7.77
2018-03-07T07:53:18.483Z,7.87
2018-03-07T07:54:18.457Z,7.76
2018-03-07T07:56:11.996Z,7.98
2018-03-07T07:57:11.953Z,8.03
2018-03-07T07:59:04.803Z,8.03
2018-03-07T08:00:04.772Z,8.03
2018-03-07T08:01:57.803Z,8.05
2018-03-07T08:02:57.597Z,8.13
2018-03-07T08:04:50.951Z,7.98
2018-03-07T08:05:50.928Z,8.09
2018-03-07T08:07:44.286Z,8.26
2018-03-07T08:08:44.250Z,8.31
2018-03-07T08:10:37.586Z,8.24
2018-03-07T08:11:37.568Z,8.18
2018-03-07T08:13:30.953Z,8.31
2018-03-07T08:14:30.896Z,8.42
2018-03-07T08:16:24.250Z,8.41
2018-03-07T08:17:24.226Z,8.53
2018-03-07T08:19:17.593Z,8.45
2018-03-07T08:20:17.624Z,8.45
2018-03-07T08:22:10.899Z,8.34
2018-03-07T08:23:10.877Z,8.20
2018-03-07T08:25:04.245Z,8.23
2018-03-07T08:26:04.198Z,8.30
2018-03-07T08:27:57.546Z,8.45
2018-03-07T08:28:57.550Z,8.33
2018-03-07T08:30:50.885Z,8.34
2018-03-07T08:31:50.847Z,8.34
2018-03-07T08:33:44.193Z,8.41
2018-03-07T08:34:44.167Z,8.30
2018-03-07T08:36:37.535Z,8.46
2018-03-07T08:37:37.505Z,8.60
2018-03-07T08:39:30.343Z,8.61
2018-03-07T08:40:30.388Z,8.28
2018-03-07T08:42:23.677Z,8.20
2018-03-07T08:43:23.646Z,8.24
2018-03-07T08:45:16.982Z,8.24
2018-03-07T08:46:16.957Z,8.27
2018-03-07T08:48:09.829Z,8.37
2018-03-07T08:49:09.792Z,8.26
2018-03-07T08:51:03.134Z,8.63
2018-03-07T08:52:03.109Z,8.71
2018-03-07T08:53:56.472Z,8.79
2018-03-07T08:54:56.447Z,8.79
2018-03-07T08:56:49.283Z,8.99
2018-03-07T08:57:49.258Z,8.88
2018-03-07T08:59:42.622Z,9.02
2018-03-07T09:00:42.579Z,8.85
2018-03-07T09:02:35.428Z,8.97
2018-03-07T09:03:35.408Z,8.94
2018-03-07T09:05:28.272Z,8.97
2018-03-07T09:06:28.235Z,8.92
2018-03-07T09:08:21.576Z,9.03
2018-03-07T09:09:21.557Z,9.19
2018-03-07T09:11:14.918Z,9.16
2018-03-07T09:12:14.879Z,9.16
2018-03-07T09:14:08.222Z,9.22
2018-03-07T09:15:08.192Z,9.32
2018-03-07T09:17:01.589Z,9.51
2018-03-07T09:18:01.525Z,9.48
2018-03-07T09:19:54.377Z,9.58
2018-03-07T09:20:54.348Z,9.50
2018-03-07T09:22:47.211Z,9.40
2018-03-07T09:23:47.176Z,9.41
2018-03-07T09:25:40.517Z,9.65
2018-03-07T09:26:40.500Z,9.77
2018-03-07T09:28:33.857Z,9.64
2018-03-07T09:29:33.830Z,9.59
2018-03-07T09:31:27.249Z,9.55
2018-03-07T09:32:27.145Z,9.61
2018-03-07T09:34:20.010Z,9.74
2018-03-07T09:35:19.970Z,9.73
2018-03-07T09:37:12.834Z,9.87
2018-03-07T09:38:12.802Z,9.95
2018-03-07T09:40:06.178Z,10.26
2018-03-07T09:41:06.126Z,9.99
2018-03-07T09:42:58.970Z,10.13
2018-03-07T09:43:58.948Z,10.02
2018-03-07T09:45:52.322Z,10.07
2018-03-07T09:46:52.289Z,10.07
2018-03-07T09:48:45.145Z,10.04
2018-03-07T09:49:45.124Z,9.94
2018-03-07T09:51:37.980Z,10.15
2018-03-07T09:52:37.944Z,10.02
2018-03-07T09:54:31.295Z,10.05
2018-03-07T09:55:31.271Z,10.13
2018-03-07T09:57:24.706Z,10.01
2018-03-07T09:58:24.597Z,9.95
2018-03-07T10:00:17.942Z,10.04
2018-03-07T10:01:17.916Z,10.15
2018-03-07T10:03:11.277Z,10.34
2018-03-07T10:04:11.242Z,10.35
2018-03-07T10:06:04.587Z,10.26
2018-03-07T10:07:04.569Z,10.26
2018-03-07T10:08:57.923Z,10.04
2018-03-07T10:09:57.883Z,10.12
2018-03-07T10:11:51.314Z,10.49
2018-03-07T10:12:51.210Z,10.49
2018-03-07T10:14:44.574Z,10.44
2018-03-07T10:15:44.531Z,10.48
2018-03-07T10:17:37.875Z,10.46
2018-03-07T10:18:37.858Z,10.34
2018-03-07T10:20:31.219Z,10.40
2018-03-07T10:21:31.187Z,10.42
2018-03-07T10:23:24.532Z,10.53
2018-03-07T10:24:24.510Z,10.56
2018-03-07T10:26:17.880Z,10.63
2018-03-07T10:27:17.851Z,10.51
2018-03-07T10:29:11.207Z,10.41
2018-03-07T10:30:11.172Z,10.67
2018-03-07T10:32:04.545Z,10.81
2018-03-07T10:33:04.539Z,10.89
2018-03-07T10:34:57.867Z,10.64
2018-03-07T10:35:57.843Z,10.63
2018-03-07T10:37:50.711Z,10.79
2018-03-07T10:38:50.673Z,10.84
2018-03-07T10:40:44.019Z,10.74
2018-03-07T10:41:44.001Z,10.93
2018-03-07T10:43:36.875Z,10.87
2018-03-07T10:44:36.833Z,11.07
2018-03-07T10:46:29.692Z,10.93
2018-03-07T10:47:29.665Z,10.84
2018-03-07T10:49:22.544Z,11.11
2018-03-07T10:50:22.507Z,11.29
2018-03-07T10:52:15.870Z,11.14
2018-03-07T10:53:15.829Z,11.14
2018-03-07T10:55:09.196Z,10.86
2018-03-07T10:56:09.150Z,10.92
2018-03-07T10:58:02.506Z,10.57
2018-03-07T10:59:02.493Z,10.67
2018-03-07T11:00:55.347Z,10.68
2018-03-07T11:01:55.312Z,10.86
2018-03-07T11:03:48.658Z,10.75
2018-03-07T11:04:48.636Z,10.78
2018-03-07T11:06:41.999Z,10.76
2018-03-07T11:07:41.974Z,10.79
2018-03-07T11:09:35.304Z,10.81
2018-03-07T11:10:35.279Z,10.68
2018-03-07T11:12:28.644Z,10.64
2018-03-07T11:13:28.608Z,10.51
2018-03-07T11:15:21.950Z,10.89
2018-03-07T11:16:21.934Z,10.84
2018-03-07T11:18:15.313Z,10.82
2018-03-07T11:19:15.253Z,10.75
2018-03-07T11:21:08.608Z,10.84
2018-03-07T11:22:08.587Z,10.82
2018-03-07T11:24:01.461Z,10.78
2018-03-07T11:25:01.429Z,10.64
2018-03-07T11:26:54.275Z,10.67
2018-03-07T11:27:54.259Z,10.68
2018-03-07T11:29:47.133Z,10.64
2018-03-07T11:30:47.157Z,10.61
2018-03-07T11:32:40.503Z,10.64
2018-03-07T11:33:40.503Z,10.63
2018-03-07T11:35:33.852Z,10.69
2018-03-07T11:36:33.799Z,10.67
2018-03-07T11:38:27.273Z,10.51
2018-03-07T11:39:27.230Z,10.40
2018-03-07T11:41:20.506Z,10.69
2018-03-07T11:42:20.470Z,10.79
2018-03-07T11:44:13.819Z,10.93
2018-03-07T11:45:13.797Z,10.79
2018-03-07T11:47:07.158Z,10.90
2018-03-07T11:48:07.117Z,10.87
2018-03-07T11:50:00.466Z,10.79
2018-03-07T11:51:00.437Z,10.99
2018-03-07T11:52:53.302Z,11.11
2018-03-07T11:53:53.267Z,11.11
2018-03-07T11:55:46.610Z,10.86
2018-03-07T11:56:46.593Z,10.89
2018-03-07T11:58:39.952Z,10.72
2018-03-07T11:59:39.921Z,10.76
2018-03-07T12:01:33.262Z,10.90
2018-03-07T12:02:33.245Z,10.78
2018-03-07T12:04:26.603Z,10.69
2018-03-07T12:05:26.565Z,10.75
2018-03-07T12:07:19.910Z,10.79
2018-03-07T12:08:19.888Z,10.87
2018-03-07T12:10:12.753Z,10.96
2018-03-07T12:11:12.716Z,11.14
2018-03-07T12:13:05.568Z,11.27
2018-03-07T12:14:05.544Z,11.36
2018-03-07T12:15:58.898Z,11.17
2018-03-07T12:16:58.859Z,11.04
2018-03-07T12:18:52.220Z,10.87
2018-03-07T12:19:52.196Z,11.05
2018-03-07T12:21:45.552Z,10.99
2018-03-07T12:22:45.511Z,11.10
2018-03-07T12:24:38.862Z,11.04
2018-03-07T12:25:38.858Z,11.30
2018-03-07T12:27:31.735Z,11.37
2018-03-07T12:28:31.673Z,11.51
2018-03-07T12:30:24.525Z,11.43
2018-03-07T12:31:24.505Z,11.35
2018-03-07T12:33:17.857Z,11.23
2018-03-07T12:34:17.825Z,11.18
2018-03-07T12:36:11.168Z,11.27
2018-03-07T12:37:11.145Z,11.26
2018-03-07T12:39:04.508Z,11.17
2018-03-07T12:40:04.469Z,11.04
2018-03-07T12:41:57.327Z,10.93
2018-03-07T12:42:57.304Z,11.02
2018-03-07T12:44:50.668Z,10.97
2018-03-07T12:45:50.625Z,10.86
2018-03-07T12:47:43.971Z,10.99
2018-03-07T12:48:43.947Z,10.96
2018-03-07T12:50:37.315Z,10.93
2018-03-07T12:51:37.277Z,10.92
2018-03-07T12:53:30.136Z,10.81
2018-03-07T12:54:30.113Z,10.92
2018-03-07T12:56:22.991Z,10.76
2018-03-07T12:57:22.951Z,10.74
2018-03-07T12:59:16.298Z,10.63
2018-03-07T13:00:16.280Z,10.68
2018-03-07T13:02:09.654Z,10.78
2018-03-07T13:03:09.598Z,10.78
2018-03-07T13:05:02.945Z,10.75
2018-03-07T13:06:02.924Z,10.68
2018-03-07T13:07:56.880Z,10.67
2018-03-07T13:08:56.274Z,10.68
2018-03-07T13:10:49.605Z,10.72
2018-03-07T13:11:49.586Z,10.72
2018-03-07T13:13:42.945Z,10.68
2018-03-07T13:14:42.909Z,10.54
2018-03-07T13:16:36.282Z,10.64
2018-03-07T13:17:36.252Z,10.67
2018-03-07T13:19:29.113Z,10.67
2018-03-07T13:20:29.078Z,10.68
2018-03-07T13:22:22.421Z,10.68
2018-03-07T13:23:22.400Z,10.61
2018-03-07T13:25:15.769Z,10.61
2018-03-07T13:26:15.725Z,10.67
2018-03-07T13:28:09.071Z,10.64
2018-03-07T13:29:09.050Z,10.67
2018-03-07T13:31:02.427Z,10.75
2018-03-07T13:32:02.376Z,10.86
2018-03-07T13:33:55.718Z,10.89
2018-03-07T13:34:55.693Z,11.10
2018-03-07T13:36:49.058Z,11.47
2018-03-07T13:37:49.022Z,11.47
2018-03-07T13:39:42.374Z,11.48
2018-03-07T13:40:42.345Z,11.43
2018-03-07T13:42:35.209Z,11.26
2018-03-07T13:43:35.177Z,11.40
2018-03-07T13:45:28.518Z,11.27
2018-03-07T13:46:28.505Z,11.29
2018-03-07T13:48:21.873Z,11.11
2018-03-07T13:49:21.834Z,11.12
2018-03-07T13:51:15.189Z,11.14
2018-03-07T13:52:15.153Z,11.07
2018-03-07T13:54:08.516Z,11.23
2018-03-07T13:55:08.481Z,11.27
2018-03-07T13:57:02.325Z,11.36
2018-03-07T13:58:02.314Z,11.45
2018-03-07T13:59:55.663Z,11.52
2018-03-07T14:00:55.627Z,11.47
2018-03-07T14:02:48.978Z,11.55
2018-03-07T14:03:48.957Z,11.45
2018-03-07T14:05:41.832Z,11.30
2018-03-07T14:06:41.787Z,11.41
2018-03-07T14:08:35.154Z,11.43
2018-03-07T14:09:35.128Z,11.37
2018-03-07T14:11:28.487Z,11.29
2018-03-07T14:12:28.444Z,11.48
2018-03-07T14:14:21.801Z,11.55
2018-03-07T14:15:21.778Z,11.48
2018-03-07T14:17:15.155Z,11.37
2018-03-07T14:18:15.112Z,11.37
2018-03-07T14:20:07.967Z,11.47
2018-03-07T14:21:07.944Z,11.51
2018-03-07T14:23:01.304Z,11.44
2018-03-07T14:24:01.263Z,11.51
2018-03-07T14:25:54.609Z,11.62
2018-03-07T14:26:54.595Z,11.44
2018-03-07T14:28:47.955Z,11.33
2018-03-07T14:29:47.913Z,11.37
2018-03-07T14:31:41.281Z,11.33
2018-03-07T14:32:41.251Z,11.25
2018-03-07T14:34:34.612Z,11.40
2018-03-07T14:35:34.582Z,11.48
2018-03-07T14:37:27.421Z,11.69
2018-03-07T14:38:27.402Z,11.55
2018-03-07T14:40:20.766Z,11.29
2018-03-07T14:41:20.726Z,11.35
2018-03-07T14:43:14.087Z,11.48
2018-03-07T14:44:14.055Z,11.72
2018-03-07T14:46:07.423Z,11.95
2018-03-07T14:47:07.383Z,12.13
2018-03-07T14:49:00.731Z,12.50
2018-03-07T14:50:00.718Z,12.55
2018-03-07T14:51:54.076Z,12.55
2018-03-07T14:52:54.038Z,12.61
2018-03-07T14:54:47.387Z,12.49
2018-03-07T14:55:47.364Z,12.68
2018-03-07T14:57:40.745Z,12.70
2018-03-07T14:58:40.703Z,12.37
2018-03-07T15:00:34.212Z,12.70
2018-03-07T15:01:34.026Z,12.47
2018-03-07T15:03:27.396Z,12.25
2018-03-07T15:04:27.354Z,12.20
2018-03-07T15:06:20.781Z,12.12
2018-03-07T15:07:20.767Z,12.09
2018-03-07T15:09:13.649Z,12.24
2018-03-07T15:10:13.594Z,12.27
2018-03-07T15:12:06.452Z,11.81
2018-03-07T15:13:06.428Z,11.69
2018-03-07T15:14:59.308Z,11.52
2018-03-07T15:15:59.259Z,11.48
2018-03-07T15:17:52.625Z,11.12
2018-03-07T15:18:52.591Z,11.19
2018-03-07T15:20:45.955Z,10.10
2018-03-07T15:21:45.916Z,9.91
2018-03-07T15:23:38.774Z,9.31
2018-03-07T15:24:38.747Z,9.08
2018-03-07T15:26:32.119Z,8.41
2018-03-07T15:27:32.099Z,8.60
2018-03-07T15:29:25.420Z,8.49
2018-03-07T15:30:25.407Z,8.45
2018-03-07T15:32:18.777Z,8.41
2018-03-07T15:33:18.737Z,8.34
2018-03-07T15:35:11.586Z,8.42
2018-03-07T15:36:11.567Z,8.09
2018-03-07T15:38:04.427Z,7.66
2018-03-07T15:39:04.390Z,7.60
2018-03-07T15:40:57.240Z,7.32
2018-03-07T15:41:57.215Z,7.42
2018-03-07T15:43:50.574Z,7.47
2018-03-07T15:44:50.535Z,7.47
2018-03-07T15:46:43.391Z,7.38
2018-03-07T15:47:43.360Z,7.31
2018-03-07T15:49:36.717Z,7.42
2018-03-07T15:50:36.681Z,7.47
2018-03-07T15:52:30.019Z,8.05
2018-03-07T15:53:29.999Z,8.34
2018-03-07T15:55:22.860Z,9.04
2018-03-07T15:56:22.822Z,9.23
2018-03-07T15:58:16.163Z,9.37
2018-03-07T15:59:16.140Z,9.55
2018-03-07T16:01:09.005Z,9.64
2018-03-07T16:02:08.966Z,9.66
2018-03-07T16:04:01.816Z,9.95
2018-03-07T16:05:01.798Z,10.04
2018-03-07T16:06:54.661Z,10.42
2018-03-07T16:07:54.624Z,10.28
2018-03-07T16:09:47.973Z,10.38
2018-03-07T16:10:47.949Z,10.28
2018-03-07T16:12:41.303Z,10.16
2018-03-07T16:13:41.268Z,10.33
2018-03-07T16:15:34.647Z,10.37
2018-03-07T16:16:34.587Z,10.49
2018-03-07T16:18:27.950Z,9.98
2018-03-07T16:19:27.911Z,9.74
2018-03-07T16:21:20.765Z,9.77
2018-03-07T16:22:20.741Z,9.73
2018-03-07T16:24:14.106Z,9.95
2018-03-07T16:25:14.063Z,9.87
2018-03-07T16:27:07.421Z,9.87
2018-03-07T16:28:07.397Z,9.76
2018-03-07T16:30:00.269Z,9.73
2018-03-07T16:31:00.233Z,9.86
2018-03-07T16:32:53.579Z,9.89
2018-03-07T16:33:53.556Z,9.83
2018-03-07T16:35:46.420Z,9.91
2018-03-07T16:36:46.381Z,10.02
2018-03-07T16:38:39.725Z,10.01
2018-03-07T16:39:39.726Z,10.04
2018-03-07T16:41:33.068Z,10.10
2018-03-07T16:42:33.031Z,10.01
2018-03-07T16:44:26.377Z,10.01
2018-03-07T16:45:26.350Z,9.98
2018-03-07T16:47:19.710Z,10.02
2018-03-07T16:48:19.670Z,10.22
2018-03-07T16:50:13.018Z,10.26
2018-03-07T16:51:12.992Z,10.17
2018-03-07T16:53:06.357Z,10.16
2018-03-07T16:54:06.317Z,10.10
2018-03-07T16:55:59.666Z,10.13
2018-03-07T16:56:59.662Z,10.13
2018-03-07T16:58:53.005Z,10.01
2018-03-07T16:59:52.969Z,10.02
2018-03-07T17:01:46.332Z,9.98
2018-03-07T17:02:46.316Z,9.98
2018-03-07T17:04:39.668Z,10.13
2018-03-07T17:05:39.634Z,10.09
2018-03-07T17:07:32.482Z,10.04
2018-03-07T17:08:32.459Z,9.94
2018-03-07T17:10:25.850Z,9.95
2018-03-07T17:11:25.786Z,9.94
2018-03-07T17:13:18.685Z,9.98
2018-03-07T17:14:18.614Z,9.92
2018-03-07T17:16:11.478Z,9.84
2018-03-07T17:17:11.440Z,9.87
2018-03-07T17:19:04.787Z,9.91
2018-03-07T17:20:04.761Z,9.92
2018-03-07T17:21:58.163Z,9.91
2018-03-07T17:22:58.108Z,9.99
2018-03-07T17:24:50.954Z,10.02
2018-03-07T17:25:50.928Z,9.91
2018-03-07T17:27:44.312Z,9.86
2018-03-07T17:28:44.274Z,9.79
2018-03-07T17:30:37.615Z,9.83
2018-03-07T17:31:37.599Z,9.80
2018-03-07T17:33:30.967Z,9.76
2018-03-07T17:34:30.929Z,9.74
2018-03-07T17:36:24.277Z,9.92
2018-03-07T17:37:24.251Z,9.99
2018-03-07T17:39:17.119Z,9.98
2018-03-07T17:40:17.087Z,9.83
2018-03-07T17:42:10.441Z,10.02
2018-03-07T17:43:10.410Z,10.04
2018-03-07T17:45:03.775Z,9.98
2018-03-07T17:46:03.735Z,10.09
2018-03-07T17:47:57.094Z,10.01
2018-03-07T17:48:57.067Z,10.20
2018-03-07T17:50:50.434Z,10.19
2018-03-07T17:51:50.410Z,10.13
2018-03-07T17:53:43.748Z,9.86
2018-03-07T17:54:43.723Z,9.55
2018-03-07T17:56:37.089Z,9.64
2018-03-07T17:57:37.055Z,9.79
2018-03-07T17:59:30.414Z,9.68
2018-03-07T18:00:30.390Z,9.55
2018-03-07T18:02:23.758Z,9.39
2018-03-07T18:03:23.717Z,9.50
2018-03-07T18:05:17.073Z,9.37
2018-03-07T18:06:17.049Z,9.39
2018-03-07T18:08:10.404Z,9.46
2018-03-07T18:10:08.800Z,9.34
2018-03-07T18:12:27.602Z,9.54
2018-03-07T18:13:27.582Z,9.44
2018-03-07T18:15:20.963Z,9.21
2018-03-07T18:16:20.910Z,9.02
2018-03-07T18:18:14.256Z,8.99
2018-03-07T18:19:14.282Z,9.13
2018-03-07T18:21:04.014Z,9.22
2018-03-07T18:22:21.832Z,9.28
2018-03-07T18:23:21.764Z,9.06
2018-03-07T18:25:15.130Z,9.03
2018-03-07T18:26:15.068Z,9.00
2018-03-07T18:28:08.468Z,9.03
2018-03-07T18:29:08.401Z,8.99
2018-03-07T18:31:01.745Z,9.14
2018-03-07T18:32:36.211Z,9.34
2018-03-07T18:33:36.185Z,9.19
2018-03-07T18:35:29.051Z,8.92
2018-03-07T18:36:29.006Z,8.71
2018-03-07T18:38:21.852Z,8.70
2018-03-07T18:39:21.830Z,8.69
2018-03-07T18:40:31.832Z,8.88
2018-03-07T18:41:31.790Z,8.51
2018-03-07T18:43:24.641Z,8.71
2018-03-07T18:44:24.623Z,8.49
2018-03-07T18:46:17.976Z,8.45
2018-03-07T18:47:17.937Z,8.33
2018-03-07T18:49:11.392Z,8.52
2018-03-07T18:50:11.269Z,8.44
2018-03-07T18:52:04.148Z,8.51
2018-03-07T18:53:04.103Z,8.60
2018-03-07T18:54:56.955Z,8.61
2018-03-07T18:55:56.934Z,8.53
2018-03-07T18:57:50.308Z,8.66
2018-03-07T18:58:50.264Z,8.58